createdAt,value
2023-06-17T00:04:38.341Z,17.10
2023-06-17T00:10:25.118Z,16.96
2023-06-17T00:16:13.973Z,16.95
2023-06-17T00:22:02.860Z,17.11
2023-06-17T00:27:52.111Z,16.81
2023-06-17T00:33:41.446Z,16.68
2023-06-17T00:39:29.656Z,16.59
2023-06-17T00:45:18.630Z,16.72
2023-06-17T00:51:15.796Z,16.53
2023-06-17T00:57:17.138Z,16.77
2023-06-17T01:03:06.588Z,16.55
2023-06-17T01:09:02.745Z,16.78
2023-06-17T01:14:50.797Z,16.91
2023-06-17T01:20:37.811Z,16.76
2023-06-17T01:26:29.433Z,16.99
2023-06-17T01:32:18.004Z,16.98
2023-06-17T01:38:22.243Z,17.03
2023-06-17T01:44:09.969Z,16.90
2023-06-17T01:49:59.919Z,16.55
2023-06-17T01:55:47.050Z,16.58
2023-06-17T02:01:33.893Z,16.22
2023-06-17T02:07:26.851Z,16.48
2023-06-17T02:13:13.746Z,16.41
2023-06-17T02:19:03.538Z,16.63
2023-06-17T02:24:50.817Z,16.51
2023-06-17T02:30:37.547Z,16.00
2023-06-17T02:36:25.795Z,16.08
2023-06-17T02:42:16.438Z,16.10
2023-06-17T02:48:03.802Z,16.24
2023-06-17T02:53:51.257Z,16.14
2023-06-17T02:59:41.978Z,16.18
2023-06-17T03:05:31.658Z,16.14
2023-06-17T03:11:19.686Z,16.03
2023-06-17T03:17:07.354Z,15.96
2023-06-17T03:22:55.227Z,15.91
2023-06-17T03:28:42.082Z,15.85
2023-06-17T03:34:28.875Z,15.75
2023-06-17T03:40:16.669Z,15.71
2023-06-17T03:46:03.860Z,15.89
2023-06-17T03:51:51.176Z,15.73
2023-06-17T03:57:38.260Z,15.76
2023-06-17T04:03:26.636Z,15.94
2023-06-17T04:09:15.416Z,16.12
2023-06-17T04:15:02.341Z,16.11
2023-06-17T04:20:50.743Z,15.99
2023-06-17T04:26:38.980Z,16.05
2023-06-17T04:32:28.702Z,15.85
2023-06-17T04:38:23.247Z,16.54
2023-06-17T04:44:11.606Z,16.35
2023-06-17T04:49:59.083Z,17.25
2023-06-17T04:55:46.052Z,17.34
2023-06-17T05:01:33.311Z,17.55
2023-06-17T05:07:22.489Z,17.88
2023-06-17T05:13:09.277Z,17.09
2023-06-17T05:18:56.784Z,16.83
2023-06-17T05:24:44.669Z,16.36
2023-06-17T05:30:31.643Z,16.45
2023-06-17T05:36:26.214Z,16.31
2023-06-17T05:42:13.875Z,16.35
2023-06-17T05:48:01.862Z,16.55
2023-06-17T05:53:51.736Z,16.70
2023-06-17T05:59:39.027Z,16.50
2023-06-17T06:05:26.115Z,16.74
2023-06-17T06:11:13.138Z,16.73
2023-06-17T06:17:00.376Z,16.93
2023-06-17T06:22:48.028Z,17.13
2023-06-17T06:28:34.916Z,17.19
2023-06-17T06:34:23.423Z,17.93
2023-06-17T06:40:10.997Z,17.95
2023-06-17T06:45:59.262Z,18.22
2023-06-17T06:51:49.823Z,18.29
2023-06-17T06:57:38.058Z,18.27
2023-06-17T07:03:25.124Z,18.53
2023-06-17T07:09:12.759Z,18.64
2023-06-17T07:15:00.271Z,18.92
2023-06-17T07:20:48.912Z,18.98
2023-06-17T07:26:39.752Z,19.55
2023-06-17T07:32:26.800Z,19.62
2023-06-17T07:38:14.555Z,19.82
2023-06-17T07:44:01.630Z,19.51
2023-06-17T07:49:49.209Z,19.51
2023-06-17T07:55:37.930Z,19.66
2023-06-17T08:01:25.660Z,19.71
2023-06-17T08:07:17.214Z,20.45
2023-06-17T08:13:04.534Z,21.23
2023-06-17T08:18:53.571Z,21.14
2023-06-17T08:24:42.373Z,21.06
2023-06-17T08:30:31.808Z,21.19
2023-06-17T08:36:18.523Z,21.53
2023-06-17T08:42:08.747Z,21.44
2023-06-17T08:47:56.165Z,21.78
2023-06-17T08:53:45.797Z,22.28
2023-06-17T08:59:32.806Z,22.45
2023-06-17T09:05:21.165Z,22.34
2023-06-17T09:11:08.001Z,22.36
2023-06-17T09:16:54.956Z,22.10
2023-06-17T09:22:44.577Z,22.36
2023-06-17T09:28:32.708Z,22.58
2023-06-17T09:34:21.429Z,22.71
2023-06-17T09:40:09.558Z,22.57
2023-06-17T09:46:01.502Z,23.14
2023-06-17T09:51:48.839Z,23.12
2023-06-17T09:57:38.070Z,23.49
2023-06-17T10:03:30.102Z,24.46
2023-06-17T10:09:26.199Z,24.58
2023-06-17T10:15:15.963Z,24.70
2023-06-17T10:21:04.581Z,24.93
2023-06-17T10:26:52.294Z,25.36
2023-06-17T10:32:39.773Z,25.19
2023-06-17T10:38:31.762Z,25.29
2023-06-17T10:44:22.106Z,24.48
2023-06-17T10:50:13.281Z,25.37
2023-06-17T10:56:01.951Z,25.22
2023-06-17T11:01:49.857Z,24.74
2023-06-17T11:07:37.288Z,25.33
2023-06-17T11:13:24.259Z,24.91
2023-06-17T11:19:15.080Z,25.05
2023-06-17T11:25:02.259Z,25.27
2023-06-17T11:30:51.009Z,25.32
2023-06-17T11:36:38.197Z,25.84
2023-06-17T11:42:27.612Z,25.87
2023-06-17T11:48:14.363Z,25.96
2023-06-17T11:54:05.691Z,26.12
2023-06-17T11:59:58.765Z,25.39
2023-06-17T12:05:45.692Z,25.61
2023-06-17T12:11:36.925Z,25.84
2023-06-17T12:17:26.838Z,26.23
2023-06-17T12:23:13.900Z,26.07
2023-06-17T12:29:11.664Z,25.79
2023-06-17T12:35:09.123Z,25.37
2023-06-17T12:40:56.610Z,25.56
2023-06-17T12:46:45.567Z,25.98
2023-06-17T12:52:32.492Z,26.20
2023-06-17T12:58:20.789Z,27.01
2023-06-17T13:04:08.390Z,27.50
2023-06-17T13:09:57.206Z,27.53
2023-06-17T13:15:48.607Z,26.78
2023-06-17T13:21:35.684Z,26.93
2023-06-17T13:27:22.506Z,26.98
2023-06-17T13:33:09.313Z,26.44
2023-06-17T13:38:56.408Z,26.56
2023-06-17T13:44:45.478Z,26.61
2023-06-17T13:50:37.584Z,26.38
2023-06-17T13:56:29.507Z,26.90
2023-06-17T14:02:16.827Z,26.78
2023-06-17T14:08:08.659Z,26.70
2023-06-17T14:14:08.885Z,26.89
2023-06-17T14:19:55.656Z,26.66
2023-06-17T14:25:42.622Z,26.86
2023-06-17T14:31:34.397Z,26.92
2023-06-17T14:37:25.442Z,26.45
2023-06-17T14:43:15.498Z,26.27
2023-06-17T14:49:03.228Z,26.54
2023-06-17T14:54:54.913Z,26.48
2023-06-17T15:00:42.335Z,25.96
2023-06-17T15:06:30.624Z,25.92
2023-06-17T15:12:27.475Z,26.52
2023-06-17T15:18:17.124Z,26.65
2023-06-17T15:24:04.337Z,26.53
2023-06-17T15:29:51.307Z,26.31
2023-06-17T15:35:38.123Z,26.30
2023-06-17T15:41:27.176Z,26.16
2023-06-17T15:47:16.148Z,26.50
2023-06-17T15:53:07.723Z,26.35
2023-06-17T15:58:55.141Z,26.57
2023-06-17T16:04:42.614Z,26.58
2023-06-17T16:10:31.386Z,26.09
2023-06-17T16:16:25.445Z,25.87
2023-06-17T16:23:07.994Z,26.08
2023-06-17T16:28:57.233Z,26.14
2023-06-17T16:34:44.377Z,25.84
2023-06-17T16:40:31.351Z,26.24
2023-06-17T16:46:18.808Z,26.10
2023-06-17T16:52:05.963Z,25.81
2023-06-17T16:57:54.920Z,25.92
2023-06-17T17:03:41.823Z,25.94
2023-06-17T17:09:29.110Z,25.44
2023-06-17T17:15:17.253Z,25.58
2023-06-17T17:21:04.164Z,25.33
2023-06-17T17:26:52.924Z,25.49
2023-06-17T17:32:39.699Z,25.52
2023-06-17T17:38:28.498Z,25.41
2023-06-17T17:44:15.287Z,24.73
2023-06-17T17:50:02.328Z,25.00
2023-06-17T17:55:49.169Z,24.89
2023-06-17T18:01:35.918Z,24.82
2023-06-17T18:07:22.654Z,24.74
2023-06-17T18:13:12.061Z,24.83
2023-06-17T18:18:58.899Z,24.62
2023-06-17T18:24:46.130Z,24.38
2023-06-17T18:30:32.988Z,24.29
2023-06-17T18:36:20.314Z,24.07
2023-06-17T18:42:09.842Z,23.94
2023-06-17T18:47:56.909Z,24.05
2023-06-17T18:53:46.593Z,23.80
2023-06-17T18:59:33.711Z,23.42
2023-06-17T19:05:21.134Z,23.46
2023-06-17T19:11:08.857Z,23.37
2023-06-17T19:16:56.579Z,23.38
2023-06-17T19:22:44.203Z,23.37
2023-06-17T19:28:39.883Z,22.93
2023-06-17T19:34:32.606Z,23.21
2023-06-17T19:40:20.324Z,23.04
2023-06-17T19:46:09.810Z,22.68
2023-06-17T19:52:01.014Z,22.61
2023-06-17T19:57:47.994Z,22.48
2023-06-17T20:03:35.538Z,22.17
2023-06-17T20:09:22.840Z,22.06
2023-06-17T20:15:10.381Z,22.17
2023-06-17T20:20:57.731Z,21.80
2023-06-17T20:26:44.924Z,21.84
2023-06-17T20:32:35.143Z,22.18
2023-06-17T20:38:22.198Z,21.79
2023-06-17T20:44:13.438Z,22.01
2023-06-17T20:50:03.787Z,21.93
2023-06-17T20:55:52.324Z,21.32
2023-06-17T21:01:39.899Z,21.48
2023-06-17T21:07:26.627Z,21.53
2023-06-17T21:13:16.624Z,21.34
2023-06-17T21:19:09.843Z,21.22
2023-06-17T21:24:56.600Z,21.21
2023-06-17T21:30:43.899Z,21.03
2023-06-17T21:36:31.264Z,21.27
2023-06-17T21:42:20.857Z,20.94
2023-06-17T21:48:13.513Z,20.93
2023-06-17T21:54:02.889Z,20.88
2023-06-17T21:59:49.720Z,20.73
2023-06-17T22:05:44.923Z,20.86
2023-06-17T22:11:54.218Z,20.32
2023-06-17T22:17:54.114Z,20.14
2023-06-17T22:23:55.187Z,20.00
2023-06-17T22:30:12.459Z,19.84
2023-06-17T22:36:12.380Z,20.18
2023-06-17T22:41:59.706Z,19.60
2023-06-17T22:47:50.308Z,19.39
2023-06-17T22:53:37.386Z,19.34
2023-06-17T22:59:27.760Z,19.54
2023-06-17T23:05:17.047Z,19.53
2023-06-17T23:11:12.841Z,19.51
2023-06-17T23:16:59.663Z,19.81
2023-06-17T23:22:52.854Z,19.36
2023-06-17T23:29:04.923Z,19.20
2023-06-17T23:35:23.468Z,18.98
2023-06-17T23:47:38.492Z,18.98
2023-06-17T23:48:57.229Z,19.22
2023-06-17T23:53:27.245Z,19.09
2023-06-17T23:59:13.867Z,18.93
